Time;durP1;ratioP1;P1;durP2;ratioP2;P2;SDS_P1;SDS_P2;PMS_P1;PMS_P2;Temp;Humidity;BMP_temperature;BMP_pressure;BME280_temperature;BME280_humidity;BME280_pressure;Samples;Min_cycle;Max_cycle;Signal;HPM_P1;HPM_P2
2021/01/30 00:02:21;;;;;;;1.40;0.70;;;;;;;7.18;100.00;97379.12;3893135;75;388663;-75
2021/01/30 00:07:42;;;;;;;1.03;0.80;;;;;;;7.21;100.00;97377.51;3893022;74;388664;-75
2021/01/30 00:13:05;;;;;;;0.80;0.50;;;;;;;7.19;100.00;97373.80;3893708;75;384504;-75
2021/01/30 00:18:26;;;;;;;0.80;0.40;;;;;;;7.20;100.00;97364.41;3893969;75;384540;-75
2021/01/30 00:23:47;;;;;;;0.90;0.40;;;;;;;7.19;100.00;97360.12;3893866;75;384555;-75
2021/01/30 00:29:10;;;;;;;0.80;0.40;;;;;;;7.16;100.00;97361.56;3893717;75;384954;-75
2021/01/30 00:34:33;;;;;;;0.80;0.40;;;;;;;7.19;100.00;97364.23;3896032;74;384521;-74
2021/01/30 00:39:55;;;;;;;1.90;0.60;;;;;;;7.23;100.00;97358.70;3893033;74;391899;-75
2021/01/30 00:45:19;;;;;;;1.10;0.93;;;;;;;7.24;100.00;97365.14;3893438;75;384562;-75
2021/01/30 00:50:40;;;;;;;0.80;0.40;;;;;;;7.32;100.00;97367.12;3893872;75;384558;-75
2021/01/30 00:56:00;;;;;;;0.80;0.50;;;;;;;7.46;100.00;97379.20;3893966;75;384497;-75
2021/01/30 01:01:22;;;;;;;0.90;0.50;;;;;;;7.48;100.00;97384.41;3893460;75;384549;-75
2021/01/30 01:06:44;;;;;;;0.80;0.47;;;;;;;7.49;100.00;97402.37;3893796;75;383600;-75
2021/01/30 01:12:05;;;;;;;2.40;0.50;;;;;;;7.50;100.00;97418.97;3893310;75;391012;-75
2021/01/30 01:17:26;;;;;;;1.10;0.93;;;;;;;7.52;100.00;97405.62;3893019;74;388655;-74
2021/01/30 01:22:48;;;;;;;0.80;0.40;;;;;;;7.49;100.00;97403.75;3893868;75;383585;-74
2021/01/30 01:28:09;;;;;;;1.00;0.70;;;;;;;7.52;100.00;97429.48;3893406;75;388655;-74
2021/01/30 01:33:30;;;;;;;1.10;1.00;;;;;;;7.48;100.00;97419.19;3893424;74;384489;-74
2021/01/30 01:38:52;;;;;;;0.80;0.40;;;;;;;7.47;100.00;97432.72;3893564;74;383786;-74
2021/01/30 01:44:13;;;;;;;1.07;0.70;;;;;;;7.49;100.00;97420.16;3892934;75;391916;-74
2021/01/30 01:49:37;;;;;;;0.90;0.50;;;;;;;7.44;100.00;97426.09;3893429;75;383593;-74
2021/01/30 01:55:01;;;;;;;0.80;0.40;;;;;;;7.36;100.00;97422.55;3894528;75;383586;-74
2021/01/30 02:00:24;;;;;;;0.93;0.70;;;;;;;7.36;100.00;97423.92;3893615;75;389826;-74
2021/01/30 02:05:46;;;;;;;0.80;0.40;;;;;;;7.30;100.00;97421.49;3893661;75;383589;-75
2021/01/30 02:11:07;;;;;;;1.30;0.93;;;;;;;7.35;100.00;97434.07;3893300;75;387742;-74
2021/01/30 02:16:47;;;;;;;2.43;1.23;;;;;;;7.32;100.00;97415.78;3892708;75;396121;-74
2021/01/30 02:22:26;;;;;;;1.20;0.93;;;;;;;7.33;100.00;97425.53;3895155;75;388709;-74
2021/01/30 02:27:50;;;;;;;1.00;0.50;;;;;;;7.37;100.00;97422.73;3864344;74;386633;-74
2021/01/30 02:33:40;;;;;;;0.80;0.60;;;;;;;7.37;100.00;97426.23;3893803;74;384805;-74
2021/01/30 02:39:25;;;;;;;0.90;0.67;;;;;;;7.37;100.00;97424.86;3895671;74;384545;-74
2021/01/30 02:45:04;;;;;;;1.70;0.90;;;;;;;7.42;100.00;97440.81;3895015;75;384504;-74
2021/01/30 02:50:28;;;;;;;0.90;0.50;;;;;;;7.27;100.00;97443.59;3894461;75;384561;-74
2021/01/30 02:55:51;;;;;;;0.80;0.40;;;;;;;7.27;100.00;97429.16;3893906;75;384558;-73
2021/01/30 03:01:13;;;;;;;0.87;0.53;;;;;;;7.28;100.00;97425.23;3895928;75;384557;-74
2021/01/30 03:06:51;;;;;;;1.30;0.80;;;;;;;7.25;100.00;97441.09;3893090;75;391938;-74
2021/01/30 03:12:25;;;;;;;0.83;0.50;;;;;;;7.19;100.00;97429.86;3895789;75;384769;-73
2021/01/30 03:17:48;;;;;;;1.30;0.70;;;;;;;7.21;100.00;97432.20;3893424;75;394011;-74
2021/01/30 03:23:11;;;;;;;0.80;0.40;;;;;;;7.08;100.00;97430.47;3893556;75;384539;-74
2021/01/30 03:28:32;;;;;;;0.80;0.40;;;;;;;7.13;100.00;97442.47;3893703;75;384762;-74
2021/01/30 03:33:54;;;;;;;0.90;0.63;;;;;;;7.15;100.00;97431.89;3893678;75;390138;-74
2021/01/30 03:39:18;;;;;;;1.00;0.60;;;;;;;7.17;100.00;97430.89;3893427;75;384507;-74
2021/01/30 03:44:40;;;;;;;1.00;0.70;;;;;;;7.23;100.00;97425.69;3893420;75;384504;-74
2021/01/30 03:50:01;;;;;;;0.93;0.63;;;;;;;7.27;100.00;97420.34;3893418;74;384755;-74
2021/01/30 03:55:23;;;;;;;3.77;1.00;;;;;;;7.23;100.00;97424.33;3893515;74;384504;-74
2021/01/30 04:00:44;;;;;;;0.80;0.40;;;;;;;7.19;100.00;97424.39;3893604;75;384555;-73
2021/01/30 04:06:07;;;;;;;0.90;0.60;;;;;;;7.22;100.00;97426.30;3894117;75;383797;-73
2021/01/30 04:11:30;;;;;;;1.00;0.63;;;;;;;7.17;100.00;97411.75;3895676;74;384542;-74
2021/01/30 04:16:51;;;;;;;1.00;0.80;;;;;;;7.16;100.00;97418.41;3892954;75;392906;-74
2021/01/30 04:22:13;;;;;;;1.57;0.50;;;;;;;7.09;100.00;97429.28;3892895;75;390798;-74
2021/01/30 04:27:34;;;;;;;0.80;0.60;;;;;;;7.08;100.00;97429.86;3893461;75;384567;-74
2021/01/30 04:32:56;;;;;;;0.80;0.43;;;;;;;7.11;100.00;97435.88;3893901;75;384562;-74
2021/01/30 04:38:17;;;;;;;0.80;0.40;;;;;;;7.11;100.00;97436.48;3893827;74;384558;-73
2021/01/30 04:43:47;;;;;;;0.80;0.40;;;;;;;7.08;100.00;97429.86;3893796;75;383585;-74
2021/01/30 04:49:20;;;;;;;1.07;0.97;;;;;;;7.11;100.00;97424.18;3894105;74;384504;-74
2021/01/30 04:54:53;;;;;;;0.80;0.40;;;;;;;7.11;100.00;97420.23;3879967;75;384503;-74
2021/01/30 05:00:34;;;;;;;0.80;0.40;;;;;;;7.10;100.00;97426.73;3895847;74;384534;-73
2021/01/30 05:05:58;;;;;;;1.07;0.60;;;;;;;7.04;100.00;97423.69;3894424;75;384555;-74
2021/01/30 05:11:21;;;;;;;0.80;0.40;;;;;;;7.11;100.00;97422.96;3894475;75;384554;-73
2021/01/30 05:16:52;;;;;;;0.83;0.50;;;;;;;7.12;100.00;97432.72;3893604;75;383530;-73
2021/01/30 05:22:15;;;;;;;0.80;0.40;;;;;;;7.11;100.00;97426.30;3894585;74;384552;-74
2021/01/30 05:27:57;;;;;;;0.80;0.40;;;;;;;7.07;100.00;97435.14;3893410;74;383593;-73
2021/01/30 05:33:43;;;;;;;1.57;0.70;;;;;;;6.90;100.00;97438.17;3895187;75;393994;-74
2021/01/30 05:39:10;;;;;;;0.80;0.50;;;;;;;6.80;100.00;97420.77;3895756;74;384798;-74
2021/01/30 05:44:52;;;;;;;0.80;0.47;;;;;;;6.69;100.00;97418.02;3895809;75;384503;-73
2021/01/30 05:50:19;;;;;;;0.80;0.50;;;;;;;6.69;100.00;97427.58;3895550;74;384573;-74
2021/01/30 05:55:40;;;;;;;0.80;0.50;;;;;;;6.80;100.00;97419.40;3894510;74;384545;-74
2021/01/30 06:01:25;;;;;;;0.80;0.40;;;;;;;6.82;100.00;97410.78;3893743;75;384783;-74
2021/01/30 06:06:55;;;;;;;0.90;0.60;;;;;;;6.88;100.00;97415.94;3895917;74;384559;-74
2021/01/30 06:12:32;;;;;;;0.80;0.50;;;;;;;6.86;100.00;97423.20;3893587;75;384503;-74
2021/01/30 06:17:53;;;;;;;0.80;0.50;;;;;;;6.89;100.00;97423.75;3893397;74;384595;-74
2021/01/30 06:23:15;;;;;;;1.53;0.63;;;;;;;6.85;100.00;97424.98;3893204;75;389868;-74
2021/01/30 06:28:39;;;;;;;1.13;0.70;;;;;;;6.88;100.00;97430.98;3892741;75;394025;-75
2021/01/30 06:34:08;;;;;;;0.80;0.40;;;;;;;6.86;100.00;97429.27;3893776;75;384595;-74
2021/01/30 06:39:35;;;;;;;0.90;0.50;;;;;;;6.82;100.00;97426.59;3840310;76;384546;-75
2021/01/30 06:45:02;;;;;;;0.80;0.40;;;;;;;6.84;100.00;97420.70;3848635;75;383590;-75
2021/01/30 06:50:35;;;;;;;0.90;0.73;;;;;;;6.86;100.00;97423.81;3848539;75;384537;-75
2021/01/30 06:56:05;;;;;;;0.80;0.50;;;;;;;6.84;100.00;97424.81;3847654;76;384767;-76
2021/01/30 07:01:29;;;;;;;0.80;0.40;;;;;;;6.78;100.00;97424.50;3845146;75;383593;-76
2021/01/30 07:07:16;;;;;;;0.87;0.53;;;;;;;6.74;100.00;97433.36;3848407;76;384549;-77
2021/01/30 07:13:05;;;;;;;0.80;0.50;;;;;;;6.58;100.00;97423.62;3848398;76;383582;-77
2021/01/30 07:18:37;;;;;;;0.80;0.50;;;;;;;6.59;100.00;97432.00;3847664;76;384546;-77
2021/01/30 07:24:19;;;;;;;0.80;0.50;;;;;;;6.56;100.00;97441.61;3848261;76;385530;-77
2021/01/30 07:29:52;;;;;;;0.80;0.40;;;;;;;6.46;100.00;97441.19;3848658;76;384556;-78
2021/01/30 07:35:25;;;;;;;0.90;0.60;;;;;;;6.46;100.00;97442.56;3850899;74;386006;-78
2021/01/30 07:41:04;;;;;;;0.87;0.73;;;;;;;6.35;100.00;97443.29;3934235;74;384514;-78
2021/01/30 07:46:31;;;;;;;1.43;0.70;;;;;;;6.39;100.00;97452.19;3934072;74;383817;-78
2021/01/30 07:52:04;;;;;;;0.90;0.80;;;;;;;6.38;100.00;97450.67;3934385;74;384548;-78
2021/01/30 07:57:31;;;;;;;2.50;1.37;;;;;;;6.12;100.00;97469.14;3933074;74;397258;-78
2021/01/30 08:03:11;;;;;;;0.80;0.43;;;;;;;6.06;100.00;97487.13;3892995;74;383820;-78
2021/01/30 08:08:47;;;;;;;0.80;0.40;;;;;;;4.92;100.00;97493.86;3933452;74;383848;-77
2021/01/30 08:14:29;;;;;;;0.80;0.40;;;;;;;3.97;100.00;97491.45;3935393;74;383545;-77
2021/01/30 08:20:11;;;;;;;0.87;0.70;;;;;;;3.57;100.00;97498.56;3932567;74;383576;-77
2021/01/30 08:26:01;;;;;;;0.80;0.50;;;;;;;3.32;100.00;97520.36;3935400;74;383808;-77
2021/01/30 08:31:40;;;;;;;0.80;0.60;;;;;;;3.32;100.00;97534.51;3935350;74;383541;-77
2021/01/30 08:37:10;;;;;;;0.80;0.40;;;;;;;3.03;100.00;97528.89;3935573;74;383798;-76
2021/01/30 08:42:34;;;;;;;0.80;0.40;;;;;;;2.74;100.00;97546.33;3926956;74;383573;-76
2021/01/30 08:48:19;;;;;;;0.90;0.63;;;;;;;2.72;100.00;97556.78;3935224;74;389804;-77
2021/01/30 08:53:41;;;;;;;0.97;0.60;;;;;;;2.63;100.00;97552.30;3932913;74;387797;-78
2021/01/30 08:59:02;;;;;;;1.00;0.50;;;;;;;2.71;100.00;97555.80;3933096;74;385616;-78
2021/01/30 09:04:46;;;;;;;1.00;0.70;;;;;;;2.60;100.00;97576.72;3933208;74;383580;-77
2021/01/30 09:10:29;;;;;;;0.90;0.70;;;;;;;2.36;100.00;97593.10;3935381;74;383793;-78
2021/01/30 09:15:59;;;;;;;1.43;0.67;;;;;;;2.03;100.00;97592.56;3932702;74;389811;-78
2021/01/30 09:21:26;;;;;;;0.80;0.40;;;;;;;1.84;100.00;97598.84;3933655;74;383778;-79
2021/01/30 09:27:06;;;;;;;0.97;0.87;;;;;;;1.68;100.00;97603.19;3920081;74;383930;-79
2021/01/30 09:32:30;;;;;;;0.80;0.40;;;;;;;1.68;100.00;97610.55;3934434;74;383789;-79
2021/01/30 09:37:51;;;;;;;0.80;0.40;;;;;;;1.64;100.00;97614.59;3918671;74;383585;-79
2021/01/30 09:43:14;;;;;;;0.80;0.57;;;;;;;1.65;100.00;97617.51;3894100;75;383581;-79
2021/01/30 09:48:39;;;;;;;6.00;1.87;;;;;;;1.59;100.00;97625.00;3892311;75;396352;-79
2021/01/30 09:54:02;;;;;;;0.80;0.40;;;;;;;1.62;100.00;97629.65;3893689;75;383541;-79
2021/01/30 09:59:26;;;;;;;1.13;1.00;;;;;;;1.61;100.00;97645.73;3892914;74;396146;-79
2021/01/30 10:04:48;;;;;;;2.87;1.33;;;;;;;1.70;100.00;97636.11;3892924;74;393338;-78
2021/01/30 10:10:32;;;;;;;1.43;1.30;;;;;;;1.66;100.00;97645.37;3893241;75;391861;-78
2021/01/30 10:15:55;;;;;;;1.00;0.90;;;;;;;1.61;100.00;97634.89;3895815;74;383577;-78
2021/01/30 10:21:31;;;;;;;1.30;1.10;;;;;;;1.61;100.00;97643.02;3893028;75;391896;-78
2021/01/30 10:26:55;;;;;;;2.33;1.53;;;;;;;1.71;100.00;97642.30;3892053;74;396102;-78
2021/01/30 10:32:35;;;;;;;1.13;0.83;;;;;;;1.73;100.00;97642.15;3894840;75;391872;-77
2021/01/30 10:37:59;;;;;;;0.80;0.50;;;;;;;1.74;100.00;97642.33;3905383;74;383568;-77
2021/01/30 10:43:26;;;;;;;1.40;1.20;;;;;;;1.72;100.00;97647.37;3933725;74;387741;-77
2021/01/30 10:48:47;;;;;;;2.60;2.27;;;;;;;1.60;100.00;97648.23;3934033;74;394022;-77
2021/01/30 10:54:20;;;;;;;4.40;1.90;;;;;;;1.56;100.00;97656.13;3932253;74;392124;-77
2021/01/30 10:59:50;;;;;;;1.67;1.03;;;;;;;1.48;100.00;97656.64;3932571;74;392163;-76
2021/01/30 11:05:23;;;;;;;1.10;1.00;;;;;;;1.49;100.00;97654.72;3933407;74;383797;-77
2021/01/30 11:10:50;;;;;;;1.67;1.57;;;;;;;1.39;100.00;97656.17;3933699;74;392941;-77
2021/01/30 11:16:11;;;;;;;2.30;0.70;;;;;;;1.33;100.00;97651.48;3934967;74;390005;-77
2021/01/30 11:21:37;;;;;;;2.90;1.83;;;;;;;1.22;100.00;97641.13;3932293;74;393986;-78
2021/01/30 11:26:59;;;;;;;2.80;1.63;;;;;;;1.21;100.00;97641.68;3932239;74;396021;-78
2021/01/30 11:32:23;;;;;;;1.23;1.13;;;;;;;1.26;100.00;97638.65;3932445;74;396104;-78
2021/01/30 11:37:44;;;;;;;1.07;0.97;;;;;;;1.37;100.00;97650.93;3933672;74;383832;-78
2021/01/30 11:43:05;;;;;;;2.30;1.20;;;;;;;1.29;100.00;97637.91;3933064;74;383580;-78
2021/01/30 11:48:27;;;;;;;3.23;1.53;;;;;;;1.29;100.00;97641.98;3932218;74;391917;-78
2021/01/30 11:53:49;;;;;;;1.00;0.70;;;;;;;1.20;100.00;97640.71;3933122;74;389812;-78
2021/01/30 11:59:12;;;;;;;1.50;1.23;;;;;;;1.18;100.00;97632.97;3932599;74;391907;-78
2021/01/30 12:04:32;;;;;;;3.53;1.80;;;;;;;1.26;100.00;97640.00;3934406;74;395090;-78
2021/01/30 12:09:54;;;;;;;2.30;1.03;;;;;;;1.30;100.00;97638.68;3933291;74;383571;-78
2021/01/30 12:15:15;;;;;;;1.47;1.33;;;;;;;1.27;100.00;97630.73;3932452;74;396087;-80
2021/01/30 12:20:37;;;;;;;2.53;1.20;;;;;;;1.20;100.00;97623.91;3932684;74;391898;-79
2021/01/30 12:25:59;;;;;;;2.00;1.67;;;;;;;1.05;100.00;97612.72;3932006;74;396360;-79
2021/01/30 12:31:20;;;;;;;7.40;2.30;;;;;;;1.04;100.00;97615.24;3933050;74;396066;-79
2021/01/30 12:36:42;;;;;;;0.80;0.50;;;;;;;1.03;100.00;97608.83;3933344;74;383571;-79
2021/01/30 12:42:06;;;;;;;1.60;1.50;;;;;;;1.04;100.00;97600.91;3932504;74;396162;-79
2021/01/30 12:47:29;;;;;;;1.40;1.27;;;;;;;1.02;100.00;97603.20;3933200;74;388002;-79
2021/01/30 12:52:51;;;;;;;2.30;2.20;;;;;;;0.98;100.00;97599.70;3932216;74;391893;-79
2021/01/30 12:58:21;;;;;;;1.27;1.17;;;;;;;0.86;100.00;97594.55;3932444;74;389776;-79
2021/01/30 13:03:42;;;;;;;1.43;1.33;;;;;;;0.81;100.00;97591.59;3932815;74;391924;-79
2021/01/30 13:09:04;;;;;;;0.90;0.50;;;;;;;0.85;100.00;97584.86;3933359;74;385620;-78
2021/01/30 13:14:25;;;;;;;2.10;2.00;;;;;;;0.88;100.00;97574.10;3932089;74;396077;-79
2021/01/30 13:19:47;;;;;;;1.67;1.20;;;;;;;0.85;100.00;97574.83;3932877;74;394008;-79
2021/01/30 13:25:09;;;;;;;1.00;0.90;;;;;;;0.85;100.00;97580.80;3932813;74;390103;-79
2021/01/30 13:30:31;;;;;;;0.80;0.50;;;;;;;0.77;100.00;97585.18;3933520;74;383868;-79
2021/01/30 13:35:53;;;;;;;1.20;0.97;;;;;;;0.84;100.00;97589.52;3933044;74;387801;-79
2021/01/30 13:41:14;;;;;;;1.50;1.00;;;;;;;0.78;100.00;97597.77;3907569;74;390060;-78
2021/01/30 13:46:36;;;;;;;3.53;1.03;;;;;;;0.73;100.00;97591.14;3892925;75;394015;-78
2021/01/30 13:51:57;;;;;;;1.33;1.13;;;;;;;0.71;100.00;97581.27;3893451;74;383826;-78
2021/01/30 13:57:18;;;;;;;0.90;0.70;;;;;;;0.85;100.00;97579.45;3894099;75;383834;-78
2021/01/30 14:02:40;;;;;;;1.33;1.23;;;;;;;0.86;100.00;97581.02;3892642;75;393951;-78
2021/01/30 14:08:02;;;;;;;1.77;1.67;;;;;;;0.83;100.00;97574.42;3893045;74;383581;-77
2021/01/30 14:13:23;;;;;;;1.83;1.33;;;;;;;0.79;100.00;97577.69;3892589;75;396285;-77
2021/01/30 14:18:44;;;;;;;1.03;0.93;;;;;;;0.87;100.00;97584.72;3892919;75;383565;-77
2021/01/30 14:24:06;;;;;;;0.83;0.53;;;;;;;0.83;100.00;97579.83;3893718;75;383802;-77
2021/01/30 14:29:27;;;;;;;1.50;1.40;;;;;;;0.81;100.00;97574.01;3892513;75;392117;-78
2021/01/30 14:34:49;;;;;;;3.13;1.77;;;;;;;0.78;100.00;97569.91;3893143;75;390854;-78
2021/01/30 14:40:12;;;;;;;1.47;1.37;;;;;;;0.80;100.00;97567.06;3893004;74;392294;-78
2021/01/30 14:45:33;;;;;;;2.50;1.47;;;;;;;0.75;100.00;97561.77;3892261;75;391922;-78
2021/01/30 14:50:55;;;;;;;1.23;1.13;;;;;;;0.65;100.00;97561.11;3892981;74;396168;-77
2021/01/30 14:56:16;;;;;;;1.13;1.03;;;;;;;0.68;100.00;97556.29;3892916;75;391974;-78
2021/01/30 15:01:37;;;;;;;1.63;0.97;;;;;;;0.61;100.00;97552.92;3892880;75;394285;-78
2021/01/30 15:06:59;;;;;;;1.30;1.20;;;;;;;0.57;100.00;97547.27;3893441;75;389824;-78
2021/01/30 15:12:20;;;;;;;1.53;1.43;;;;;;;0.61;100.00;97552.16;3893211;75;387834;-78
2021/01/30 15:17:41;;;;;;;1.53;1.00;;;;;;;0.63;100.00;97550.64;3893212;75;383850;-78
2021/01/30 15:23:03;;;;;;;3.27;3.03;;;;;;;0.64;100.00;97547.37;3892708;74;394057;-79
2021/01/30 15:28:25;;;;;;;1.27;1.17;;;;;;;0.57;100.00;97548.63;3893749;75;383577;-78
2021/01/30 15:33:46;;;;;;;1.50;1.07;;;;;;;0.51;100.00;97539.30;3893341;74;387802;-78
2021/01/30 15:39:08;;;;;;;1.30;1.20;;;;;;;0.54;100.00;97543.98;3892767;75;391912;-78
2021/01/30 15:44:29;;;;;;;0.80;0.50;;;;;;;0.54;100.00;97541.27;3894078;74;383574;-78
2021/01/30 15:49:50;;;;;;;1.13;1.03;;;;;;;0.51;100.00;97542.00;3892740;75;391941;-78
2021/01/30 15:55:20;;;;;;;5.27;2.70;;;;;;;0.51;100.00;97540.09;3892740;75;391896;-78
2021/01/30 16:00:42;;;;;;;12.33;1.70;;;;;;;0.47;100.00;97541.20;3895037;74;393982;-78
2021/01/30 16:06:03;;;;;;;1.67;1.37;;;;;;;0.42;100.00;97542.88;3893024;74;396080;-78
2021/01/30 16:11:24;;;;;;;2.30;0.97;;;;;;;0.40;100.00;97543.84;3893999;74;383826;-78
2021/01/30 16:16:45;;;;;;;0.90;0.67;;;;;;;0.32;100.00;97545.67;3893835;75;387771;-78
2021/01/30 16:22:06;;;;;;;2.60;1.17;;;;;;;0.35;100.00;97542.80;3892763;75;392131;-80
2021/01/30 16:27:27;;;;;;;0.80;0.50;;;;;;;0.29;100.00;97536.17;3893990;74;383825;-78
2021/01/30 16:32:51;;;;;;;9.90;1.33;;;;;;;0.26;100.00;97546.36;3893653;75;383564;-77
2021/01/30 16:38:12;;;;;;;2.27;1.40;;;;;;;0.34;100.00;97552.05;3892265;75;396129;-77
2021/01/30 16:43:34;;;;;;;2.20;2.00;;;;;;;0.44;100.00;97555.45;3922189;74;389857;-77
2021/01/30 16:48:55;;;;;;;1.10;0.80;;;;;;;0.42;100.00;97552.34;3933236;74;383537;-77
2021/01/30 16:54:16;;;;;;;2.80;1.23;;;;;;;0.39;100.00;97554.45;3932301;74;396293;-77
2021/01/30 16:59:38;;;;;;;3.27;2.60;;;;;;;0.40;100.00;97564.89;3932573;74;396107;-77
2021/01/30 17:04:59;;;;;;;1.10;1.00;;;;;;;0.33;100.00;97562.66;3932646;74;395024;-78
2021/01/30 17:10:20;;;;;;;1.43;1.33;;;;;;;0.31;100.00;97569.03;3932916;74;391924;-77
2021/01/30 17:15:43;;;;;;;3.80;1.13;;;;;;;0.32;100.00;97556.49;3932630;74;392166;-77
2021/01/30 17:21:06;;;;;;;1.33;0.90;;;;;;;0.26;100.00;97570.70;3932464;74;394032;-77
2021/01/30 17:26:28;;;;;;;2.47;1.00;;;;;;;0.25;100.00;97565.08;3932356;74;394221;-77
2021/01/30 17:31:49;;;;;;;1.10;0.73;;;;;;;0.28;100.00;97552.95;3933508;74;388804;-77
2021/01/30 17:37:11;;;;;;;0.90;0.80;;;;;;;0.29;100.00;97559.92;3933278;74;387736;-77
2021/01/30 17:42:32;;;;;;;4.93;1.50;;;;;;;0.35;100.00;97573.34;3932713;74;383620;-78
2021/01/30 17:47:54;;;;;;;1.43;1.33;;;;;;;0.39;100.00;97571.44;3932481;74;396084;-77
2021/01/30 17:53:15;;;;;;;1.57;1.47;;;;;;;0.30;100.00;97578.30;3932399;74;393942;-78
2021/01/30 17:58:36;;;;;;;1.50;1.40;;;;;;;0.28;100.00;97587.34;3932456;74;396080;-78
2021/01/30 18:03:58;;;;;;;6.03;2.20;;;;;;;0.23;100.00;97589.03;3932093;74;394210;-77
2021/01/30 18:09:19;;;;;;;3.90;1.70;;;;;;;0.14;100.00;97590.64;3932377;74;392923;-78
2021/01/30 18:14:41;;;;;;;1.07;0.97;;;;;;;0.12;100.00;97596.22;3932203;74;391856;-77
2021/01/30 18:20:02;;;;;;;0.80;0.60;;;;;;;0.12;100.00;97590.81;3933433;74;383545;-77
2021/01/30 18:25:26;;;;;;;4.40;2.60;;;;;;;0.12;100.00;97590.81;3931843;74;396305;-77
2021/01/30 18:30:47;;;;;;;8.90;3.20;;;;;;;0.09;100.00;97599.64;3933091;74;393946;-77
2021/01/30 18:36:08;;;;;;;3.83;1.90;;;;;;;0.09;100.00;97591.53;3932312;74;396077;-77
2021/01/30 18:41:29;;;;;;;10.23;2.00;;;;;;;0.13;100.00;97591.02;3932938;74;396102;-77
2021/01/30 18:46:51;;;;;;;1.70;1.60;;;;;;;0.11;100.00;97596.01;3933116;74;387752;-77
2021/01/30 18:52:14;;;;;;;0.80;0.70;;;;;;;0.04;100.00;97598.04;3933560;74;383560;-77
2021/01/30 18:57:35;;;;;;;5.90;1.90;;;;;;;0.12;100.00;97597.56;3934674;74;387801;-76
2021/01/30 19:02:58;;;;;;;10.23;2.83;;;;;;;0.13;100.00;97601.25;3932764;74;396097;-77
2021/01/30 19:08:19;;;;;;;1.23;1.03;;;;;;;0.07;100.00;97604.66;3932454;74;394230;-77
2021/01/30 19:13:40;;;;;;;5.90;1.83;;;;;;;0.09;100.00;97605.84;3932436;74;396308;-76
2021/01/30 19:19:02;;;;;;;3.80;3.50;;;;;;;0.05;100.00;97601.54;3932352;74;396076;-77
2021/01/30 19:24:23;;;;;;;1.67;1.57;;;;;;;-0.02;100.00;97605.50;3932759;74;396112;-77
2021/01/30 19:29:45;;;;;;;2.70;1.20;;;;;;;0.00;100.00;97610.74;3932496;74;393993;-77
2021/01/30 19:35:06;;;;;;;1.70;1.60;;;;;;;0.01;100.00;97607.45;3932202;74;394304;-76
2021/01/30 19:40:29;;;;;;;3.27;2.97;;;;;;;-0.02;100.00;97606.06;3932417;74;396041;-77
2021/01/30 19:45:53;;;;;;;2.40;2.30;;;;;;;-0.04;100.00;97613.19;3900726;74;389825;-77
2021/01/30 19:51:14;;;;;;;6.30;1.80;;;;;;;0.01;100.00;97610.16;3893063;75;383542;-77
2021/01/30 19:56:35;;;;;;;4.00;1.70;;;;;;;0.05;100.00;97610.41;3893446;75;383538;-76
2021/01/30 20:01:56;;;;;;;3.23;1.90;;;;;;;0.00;100.00;97618.09;3892362;75;396345;-77
2021/01/30 20:07:17;;;;;;;2.13;1.93;;;;;;;0.01;100.00;97623.67;3892721;75;396074;-77
2021/01/30 20:12:38;;;;;;;6.10;3.37;;;;;;;0.03;100.00;97622.74;3892832;75;396139;-76
2021/01/30 20:18:00;;;;;;;2.33;2.23;;;;;;;0.00;100.00;97631.59;3892679;75;396117;-76
2021/01/30 20:23:21;;;;;;;1.80;1.70;;;;;;;0.01;100.00;97633.13;3893000;75;391896;-76
2021/01/30 20:28:42;;;;;;;3.70;3.47;;;;;;;-0.03;100.00;97636.38;3892879;75;394263;-75
2021/01/30 20:34:03;;;;;;;4.13;2.07;;;;;;;-0.05;100.00;97635.95;3892583;75;396370;-77
2021/01/30 20:39:24;;;;;;;2.93;2.83;;;;;;;-0.11;100.00;97646.87;3892978;75;396077;-76
2021/01/30 20:44:46;;;;;;;1.87;1.57;;;;;;;-0.12;100.00;97648.59;3892372;74;396408;-76
2021/01/30 20:50:10;;;;;;;2.20;2.00;;;;;;;-0.09;100.00;97643.80;3892665;74;396318;-76
2021/01/30 20:55:30;;;;;;;1.67;1.53;;;;;;;-0.06;100.00;97655.24;3894325;75;396431;-76
2021/01/30 21:00:51;;;;;;;7.03;2.03;;;;;;;-0.06;100.00;97657.95;3892937;75;390862;-77
2021/01/30 21:06:13;;;;;;;1.60;1.50;;;;;;;-0.08;100.00;97652.88;3892901;75;387710;-76
2021/01/30 21:11:34;;;;;;;7.33;2.33;;;;;;;-0.02;100.00;97647.39;3892501;74;396038;-76
2021/01/30 21:16:55;;;;;;;5.03;1.87;;;;;;;-0.11;100.00;97645.52;3893368;75;394054;-76
2021/01/30 21:22:17;;;;;;;0.80;0.50;;;;;;;-0.10;100.00;97659.25;3893860;75;383576;-76
2021/01/30 21:27:41;;;;;;;1.10;1.00;;;;;;;-0.10;100.00;97661.16;3893185;75;391950;-76
2021/01/30 21:33:02;;;;;;;1.33;1.23;;;;;;;-0.09;100.00;97660.81;3893192;74;389812;-76
2021/01/30 21:38:23;;;;;;;4.50;2.53;;;;;;;-0.12;100.00;97669.63;3892784;74;396440;-76
2021/01/30 21:43:44;;;;;;;1.80;1.27;;;;;;;-0.15;100.00;97661.48;3900814;74;392169;-76
2021/01/30 21:49:05;;;;;;;5.13;2.13;;;;;;;-0.20;100.00;97657.75;3932503;74;395108;-76
2021/01/30 21:54:26;;;;;;;3.90;1.40;;;;;;;-0.27;100.00;97670.56;3932480;74;394072;-76
2021/01/30 21:59:47;;;;;;;1.70;1.60;;;;;;;-0.23;100.00;97670.63;3932429;74;391899;-76
2021/01/30 22:05:09;;;;;;;3.63;1.63;;;;;;;-0.21;100.00;97674.52;3932402;74;396403;-76
2021/01/30 22:10:30;;;;;;;5.80;1.77;;;;;;;-0.23;100.00;97670.63;3932334;74;395074;-76
2021/01/30 22:15:51;;;;;;;1.20;0.80;;;;;;;-0.25;100.00;97665.59;3932797;74;391172;-76
2021/01/30 22:21:12;;;;;;;2.03;1.93;;;;;;;-0.23;100.00;97670.63;3931596;74;396108;-76
2021/01/30 22:26:35;;;;;;;2.13;1.47;;;;;;;-0.22;100.00;97670.83;3932231;74;396318;-76
2021/01/30 22:32:01;;;;;;;2.20;2.10;;;;;;;-0.23;100.00;97678.72;3934397;74;394031;-76
2021/01/30 22:37:22;;;;;;;1.43;1.13;;;;;;;-0.26;100.00;97673.48;3932652;74;396386;-76
2021/01/30 22:42:44;;;;;;;1.27;1.17;;;;;;;-0.24;100.00;97686.62;3933512;74;383800;-76
2021/01/30 22:48:05;;;;;;;1.37;0.60;;;;;;;-0.19;100.00;97685.74;3894510;74;391908;-75
2021/01/30 22:53:27;;;;;;;2.03;1.83;;;;;;;-0.19;100.00;97687.09;3892411;74;396089;-76
2021/01/30 22:58:48;;;;;;;5.13;2.83;;;;;;;-0.20;100.00;97692.88;3892948;75;385954;-76
2021/01/30 23:04:09;;;;;;;0.90;0.80;;;;;;;-0.24;100.00;97689.31;3894034;74;383635;-75
2021/01/30 23:09:30;;;;;;;0.90;0.73;;;;;;;-0.30;100.00;97695.59;3893940;75;383538;-75
2021/01/30 23:14:52;;;;;;;2.30;0.83;;;;;;;-0.27;100.00;97698.94;3893751;75;383589;-76
2021/01/30 23:20:19;;;;;;;1.50;1.00;;;;;;;-0.24;100.00;97689.31;3894086;74;383537;-75
2021/01/30 23:25:41;;;;;;;1.77;1.40;;;;;;;-0.24;100.00;97687.38;3892831;75;391907;-76
2021/01/30 23:31:05;;;;;;;3.17;1.50;;;;;;;-0.27;100.00;97690.83;3892223;75;396387;-75
2021/01/30 23:36:27;;;;;;;3.37;3.20;;;;;;;-0.30;100.00;97694.24;3892908;75;391955;-75
2021/01/30 23:41:48;;;;;;;4.00;1.63;;;;;;;-0.25;100.00;97705.31;3892873;75;396405;-75
2021/01/30 23:47:10;;;;;;;6.03;2.33;;;;;;;-0.28;100.00;97701.42;3893426;75;383577;-75
2021/01/30 23:52:31;;;;;;;1.43;0.80;;;;;;;-0.28;100.00;97701.42;3894006;75;383817;-75
2021/01/30 23:57:53;;;;;;;7.07;2.33;;;;;;;-0.35;100.00;97696.47;3892701;75;389770;-75
